sensor_id;sensor_type;location;lat;lon;timestamp;pressure;altitude;pressure_sealevel;temperature;humidity
69127;BME280;56688;50.234;19.292;2023-04-25T00:02:11;97399.70;;;11.27;83.80
69127;BME280;56688;50.234;19.292;2023-04-25T00:04:39;97402.55;;;11.27;83.59
69127;BME280;56688;50.234;19.292;2023-04-25T00:07:06;97396.83;;;11.28;83.47
69127;BME280;56688;50.234;19.292;2023-04-25T00:09:33;97399.85;;;11.30;83.60
69127;BME280;56688;50.234;19.292;2023-04-25T00:12:00;97401.01;;;11.29;83.15
69127;BME280;56688;50.234;19.292;2023-04-25T00:14:29;97407.33;;;11.24;83.32
69127;BME280;56688;50.234;19.292;2023-04-25T00:16:56;97403.58;;;11.22;83.43
69127;BME280;56688;50.234;19.292;2023-04-25T00:19:22;97402.18;;;11.22;83.53
69127;BME280;56688;50.234;19.292;2023-04-25T00:21:49;97398.66;;;11.21;83.76
69127;BME280;56688;50.234;19.292;2023-04-25T00:24:16;97403.89;;;11.20;83.45
69127;BME280;56688;50.234;19.292;2023-04-25T00:26:43;97406.22;;;11.16;83.43
69127;BME280;56688;50.234;19.292;2023-04-25T00:29:10;97400.61;;;11.18;83.75
69127;BME280;56688;50.234;19.292;2023-04-25T00:31:37;97406.52;;;11.19;83.56
69127;BME280;56688;50.234;19.292;2023-04-25T00:34:06;97406.48;;;11.19;83.58
69127;BME280;56688;50.234;19.292;2023-04-25T00:36:34;97408.76;;;11.17;83.55
69127;BME280;56688;50.234;19.292;2023-04-25T00:39:01;97411.23;;;11.16;83.56
69127;BME280;56688;50.234;19.292;2023-04-25T00:41:29;97409.30;;;11.16;83.59
69127;BME280;56688;50.234;19.292;2023-04-25T00:43:57;97410.45;;;11.17;83.87
69127;BME280;56688;50.234;19.292;2023-04-25T00:46:26;97415.20;;;11.18;83.94
69127;BME280;56688;50.234;19.292;2023-04-25T00:48:53;97415.02;;;11.21;83.98
69127;BME280;56688;50.234;19.292;2023-04-25T00:51:20;97415.86;;;11.20;84.03
69127;BME280;56688;50.234;19.292;2023-04-25T00:53:49;97413.61;;;11.23;84.02
69127;BME280;56688;50.234;19.292;2023-04-25T00:56:17;97415.10;;;11.25;83.92
69127;BME280;56688;50.234;19.292;2023-04-25T00:58:44;97414.20;;;11.25;84.02
69127;BME280;56688;50.234;19.292;2023-04-25T01:01:12;97415.61;;;11.26;83.91
69127;BME280;56688;50.234;19.292;2023-04-25T01:03:39;97416.09;;;11.26;84.06
69127;BME280;56688;50.234;19.292;2023-04-25T01:06:09;97409.58;;;11.29;84.35
69127;BME280;56688;50.234;19.292;2023-04-25T01:08:38;97408.54;;;11.30;83.97
69127;BME280;56688;50.234;19.292;2023-04-25T01:11:05;97413.95;;;11.31;84.24
69127;BME280;56688;50.234;19.292;2023-04-25T01:13:33;97413.70;;;11.33;84.27
69127;BME280;56688;50.234;19.292;2023-04-25T01:16:00;97411.89;;;11.31;84.07
69127;BME280;56688;50.234;19.292;2023-04-25T01:18:28;97421.49;;;11.24;83.88
69127;BME280;56688;50.234;19.292;2023-04-25T01:20:55;97415.84;;;11.21;84.29
69127;BME280;56688;50.234;19.292;2023-04-25T01:23:25;97411.30;;;11.21;84.40
69127;BME280;56688;50.234;19.292;2023-04-25T01:25:52;97414.70;;;11.19;84.46
69127;BME280;56688;50.234;19.292;2023-04-25T01:28:19;97412.23;;;11.20;84.77
69127;BME280;56688;50.234;19.292;2023-04-25T01:30:46;97410.84;;;11.24;84.71
69127;BME280;56688;50.234;19.292;2023-04-25T01:33:15;97411.06;;;11.22;84.71
69127;BME280;56688;50.234;19.292;2023-04-25T01:35:42;97413.98;;;11.22;84.43
69127;BME280;56688;50.234;19.292;2023-04-25T01:38:09;97412.23;;;11.20;83.73
69127;BME280;56688;50.234;19.292;2023-04-25T01:40:38;97416.59;;;11.14;83.59
69127;BME280;56688;50.234;19.292;2023-04-25T01:43:06;97415.10;;;11.11;83.36
69127;BME280;56688;50.234;19.292;2023-04-25T01:45:34;97421.61;;;11.05;83.15
69127;BME280;56688;50.234;19.292;2023-04-25T01:48:03;97417.75;;;10.99;83.35
69127;BME280;56688;50.234;19.292;2023-04-25T01:50:30;97420.06;;;10.96;83.41
69127;BME280;56688;50.234;19.292;2023-04-25T01:52:57;97421.48;;;10.95;83.52
69127;BME280;56688;50.234;19.292;2023-04-25T01:55:24;97424.00;;;10.96;83.57
69127;BME280;56688;50.234;19.292;2023-04-25T01:57:58;97426.78;;;10.94;83.42
69127;BME280;56688;50.234;19.292;2023-04-25T02:00:43;97428.20;;;10.92;83.33
69127;BME280;56688;50.234;19.292;2023-04-25T02:03:11;97428.64;;;10.88;83.14
69127;BME280;56688;50.234;19.292;2023-04-25T02:05:39;97428.83;;;10.85;83.19
69127;BME280;56688;50.234;19.292;2023-04-25T02:08:09;97428.35;;;10.83;83.09
69127;BME280;56688;50.234;19.292;2023-04-25T02:10:36;97426.88;;;10.81;82.71
69127;BME280;56688;50.234;19.292;2023-04-25T02:13:13;97431.44;;;10.75;82.80
69127;BME280;56688;50.234;19.292;2023-04-25T02:15:49;97430.61;;;10.69;82.45
69127;BME280;56688;50.234;19.292;2023-04-25T02:18:18;97435.83;;;10.62;82.52
69127;BME280;56688;50.234;19.292;2023-04-25T02:20:46;97437.17;;;10.57;82.67
69127;BME280;56688;50.234;19.292;2023-04-25T02:23:12;97433.65;;;10.54;82.87
69127;BME280;56688;50.234;19.292;2023-04-25T02:25:41;97435.55;;;10.53;82.95
69127;BME280;56688;50.234;19.292;2023-04-25T02:28:08;97436.27;;;10.52;82.97
69127;BME280;56688;50.234;19.292;2023-04-25T02:30:36;97435.48;;;10.50;82.95
69127;BME280;56688;50.234;19.292;2023-04-25T02:33:04;97440.77;;;10.47;82.78
69127;BME280;56688;50.234;19.292;2023-04-25T02:35:31;97437.17;;;10.43;82.77
69127;BME280;56688;50.234;19.292;2023-04-25T02:37:58;97438.26;;;10.39;82.65
69127;BME280;56688;50.234;19.292;2023-04-25T02:40:25;97439.70;;;10.38;83.03
69127;BME280;56688;50.234;19.292;2023-04-25T02:42:53;97440.73;;;10.37;83.09
69127;BME280;56688;50.234;19.292;2023-04-25T02:45:20;97441.40;;;10.36;83.04
69127;BME280;56688;50.234;19.292;2023-04-25T02:47:47;97443.13;;;10.35;82.99
69127;BME280;56688;50.234;19.292;2023-04-25T02:50:14;97440.00;;;10.33;82.93
69127;BME280;56688;50.234;19.292;2023-04-25T02:52:41;97446.02;;;10.30;82.83
69127;BME280;56688;50.234;19.292;2023-04-25T02:55:13;97443.52;;;10.28;82.79
69127;BME280;56688;50.234;19.292;2023-04-25T02:57:40;97446.04;;;10.25;82.49
69127;BME280;56688;50.234;19.292;2023-04-25T03:00:09;97446.95;;;10.23;82.55
69127;BME280;56688;50.234;19.292;2023-04-25T03:02:38;97447.48;;;10.23;82.72
69127;BME280;56688;50.234;19.292;2023-04-25T03:05:06;97443.58;;;10.21;82.77
69127;BME280;56688;50.234;19.292;2023-04-25T03:07:34;97445.12;;;10.19;82.81
69127;BME280;56688;50.234;19.292;2023-04-25T03:10:01;97445.28;;;10.18;83.12
69127;BME280;56688;50.234;19.292;2023-04-25T03:12:29;97447.52;;;10.16;83.25
69127;BME280;56688;50.234;19.292;2023-04-25T03:14:56;97449.70;;;10.12;83.30
69127;BME280;56688;50.234;19.292;2023-04-25T03:17:23;97449.82;;;10.07;83.22
69127;BME280;56688;50.234;19.292;2023-04-25T03:19:49;97457.30;;;10.05;83.14
69127;BME280;56688;50.234;19.292;2023-04-25T03:22:16;97452.86;;;10.04;83.30
69127;BME280;56688;50.234;19.292;2023-04-25T03:24:43;97451.73;;;9.99;82.80
69127;BME280;56688;50.234;19.292;2023-04-25T03:27:11;97453.25;;;9.96;82.53
69127;BME280;56688;50.234;19.292;2023-04-25T03:29:37;97458.11;;;9.92;82.37
69127;BME280;56688;50.234;19.292;2023-04-25T03:32:05;97457.64;;;9.90;82.39
69127;BME280;56688;50.234;19.292;2023-04-25T03:34:32;97462.83;;;9.91;82.59
69127;BME280;56688;50.234;19.292;2023-04-25T03:36:59;97458.05;;;9.88;82.36
69127;BME280;56688;50.234;19.292;2023-04-25T03:39:27;97464.07;;;9.90;82.72
69127;BME280;56688;50.234;19.292;2023-04-25T03:41:55;97463.52;;;9.92;82.81
69127;BME280;56688;50.234;19.292;2023-04-25T03:44:22;97466.87;;;9.95;82.92
69127;BME280;56688;50.234;19.292;2023-04-25T03:46:50;97468.20;;;9.97;82.95
69127;BME280;56688;50.234;19.292;2023-04-25T03:49:17;97468.39;;;10.00;82.87
69127;BME280;56688;50.234;19.292;2023-04-25T03:52:01;97467.84;;;10.02;82.98
69127;BME280;56688;50.234;19.292;2023-04-25T03:54:33;97471.78;;;10.07;83.17
69127;BME280;56688;50.234;19.292;2023-04-25T03:57:07;97468.49;;;10.03;82.96
69127;BME280;56688;50.234;19.292;2023-04-25T03:59:36;97477.32;;;10.08;82.47
69127;BME280;56688;50.234;19.292;2023-04-25T04:02:04;97482.30;;;10.04;81.89
69127;BME280;56688;50.234;19.292;2023-04-25T04:04:33;97478.77;;;10.02;81.60
69127;BME280;56688;50.234;19.292;2023-04-25T04:07:00;97485.23;;;9.99;81.42
69127;BME280;56688;50.234;19.292;2023-04-25T04:09:30;97484.70;;;9.98;81.47
69127;BME280;56688;50.234;19.292;2023-04-25T04:11:59;97486.98;;;9.97;81.37
69127;BME280;56688;50.234;19.292;2023-04-25T04:14:30;97495.05;;;9.94;81.21
69127;BME280;56688;50.234;19.292;2023-04-25T04:16:57;97493.77;;;9.94;81.45
69127;BME280;56688;50.234;19.292;2023-04-25T04:19:24;97497.28;;;9.95;81.73
69127;BME280;56688;50.234;19.292;2023-04-25T04:22:00;97497.51;;;9.98;81.88
69127;BME280;56688;50.234;19.292;2023-04-25T04:24:27;97497.30;;;9.98;81.97
69127;BME280;56688;50.234;19.292;2023-04-25T04:27:00;97501.02;;;10.01;82.22
69127;BME280;56688;50.234;19.292;2023-04-25T04:29:33;97507.45;;;10.03;82.00
69127;BME280;56688;50.234;19.292;2023-04-25T04:32:06;97508.63;;;10.00;81.95
69127;BME280;56688;50.234;19.292;2023-04-25T04:34:35;97508.02;;;9.97;81.93
69127;BME280;56688;50.234;19.292;2023-04-25T04:37:03;97512.20;;;9.93;81.40
69127;BME280;56688;50.234;19.292;2023-04-25T04:39:30;97510.08;;;9.89;81.23
69127;BME280;56688;50.234;19.292;2023-04-25T04:42:07;97508.44;;;9.84;80.66
69127;BME280;56688;50.234;19.292;2023-04-25T04:44:48;97510.08;;;9.80;80.65
69127;BME280;56688;50.234;19.292;2023-04-25T04:47:25;97515.72;;;9.76;80.32
69127;BME280;56688;50.234;19.292;2023-04-25T04:50:03;97515.66;;;9.73;80.05
69127;BME280;56688;50.234;19.292;2023-04-25T04:52:42;97512.15;;;9.72;80.24
69127;BME280;56688;50.234;19.292;2023-04-25T04:55:27;97515.31;;;9.74;79.88
69127;BME280;56688;50.234;19.292;2023-04-25T04:58:09;97516.91;;;9.69;79.46
69127;BME280;56688;50.234;19.292;2023-04-25T05:00:46;97515.08;;;9.68;79.51
69127;BME280;56688;50.234;19.292;2023-04-25T05:03:33;97518.38;;;9.64;79.21
69127;BME280;56688;50.234;19.292;2023-04-25T05:06:07;97516.05;;;9.65;79.63
69127;BME280;56688;50.234;19.292;2023-04-25T05:08:45;97517.98;;;9.65;79.56
69127;BME280;56688;50.234;19.292;2023-04-25T05:11:25;97522.41;;;9.67;79.80
69127;BME280;56688;50.234;19.292;2023-04-25T05:14:07;97521.06;;;9.74;80.06
69127;BME280;56688;50.234;19.292;2023-04-25T05:16:43;97520.77;;;9.77;79.91
69127;BME280;56688;50.234;19.292;2023-04-25T05:19:19;97521.56;;;9.81;79.68
69127;BME280;56688;50.234;19.292;2023-04-25T05:22:02;97518.14;;;9.81;79.26
69127;BME280;56688;50.234;19.292;2023-04-25T05:24:38;97526.10;;;9.83;78.56
69127;BME280;56688;50.234;19.292;2023-04-25T05:27:17;97524.42;;;9.82;78.28
69127;BME280;56688;50.234;19.292;2023-04-25T05:29:59;97527.36;;;9.80;77.76
69127;BME280;56688;50.234;19.292;2023-04-25T05:32:31;97527.58;;;9.82;77.81
69127;BME280;56688;50.234;19.292;2023-04-25T05:34:59;97527.73;;;9.84;77.79
69127;BME280;56688;50.234;19.292;2023-04-25T05:37:32;97530.68;;;9.87;78.00
69127;BME280;56688;50.234;19.292;2023-04-25T05:40:08;97526.79;;;9.89;78.14
69127;BME280;56688;50.234;19.292;2023-04-25T05:42:50;97528.42;;;9.88;77.86
69127;BME280;56688;50.234;19.292;2023-04-25T05:45:20;97528.46;;;9.90;77.85
69127;BME280;56688;50.234;19.292;2023-04-25T05:47:55;97535.05;;;9.95;77.38
69127;BME280;56688;50.234;19.292;2023-04-25T05:50:37;97533.55;;;9.97;77.07
69127;BME280;56688;50.234;19.292;2023-04-25T05:53:24;97537.39;;;9.95;76.68
69127;BME280;56688;50.234;19.292;2023-04-25T05:55:58;97532.48;;;9.98;77.32
69127;BME280;56688;50.234;19.292;2023-04-25T05:58:26;97532.79;;;10.02;77.24
69127;BME280;56688;50.234;19.292;2023-04-25T06:00:53;97534.92;;;10.07;77.13
69127;BME280;56688;50.234;19.292;2023-04-25T06:03:21;97535.37;;;10.13;77.01
69127;BME280;56688;50.234;19.292;2023-04-25T06:05:50;97535.52;;;10.14;75.95
69127;BME280;56688;50.234;19.292;2023-04-25T06:08:18;97539.59;;;10.15;76.03
69127;BME280;56688;50.234;19.292;2023-04-25T06:10:45;97545.46;;;10.22;76.05
69127;BME280;56688;50.234;19.292;2023-04-25T06:13:13;97544.05;;;10.27;75.92
69127;BME280;56688;50.234;19.292;2023-04-25T06:15:40;97542.44;;;10.34;76.23
69127;BME280;56688;50.234;19.292;2023-04-25T06:18:07;97543.93;;;10.42;76.07
69127;BME280;56688;50.234;19.292;2023-04-25T06:20:34;97544.17;;;10.53;75.52
69127;BME280;56688;50.234;19.292;2023-04-25T06:23:00;97549.80;;;10.64;75.44
69127;BME280;56688;50.234;19.292;2023-04-25T06:25:42;97546.55;;;10.75;74.40
69127;BME280;56688;50.234;19.292;2023-04-25T06:28:09;97549.04;;;10.81;73.98
69127;BME280;56688;50.234;19.292;2023-04-25T06:30:36;97548.82;;;10.92;73.54
69127;BME280;56688;50.234;19.292;2023-04-25T06:33:06;97552.14;;;11.03;72.95
69127;BME280;56688;50.234;19.292;2023-04-25T06:35:35;97549.48;;;11.07;72.46
69127;BME280;56688;50.234;19.292;2023-04-25T06:38:03;97548.26;;;11.12;72.38
69127;BME280;56688;50.234;19.292;2023-04-25T06:40:30;97552.30;;;11.23;71.14
69127;BME280;56688;50.234;19.292;2023-04-25T06:42:57;97550.58;;;11.30;69.62
69127;BME280;56688;50.234;19.292;2023-04-25T06:45:40;97551.68;;;11.37;69.54
69127;BME280;56688;50.234;19.292;2023-04-25T06:48:07;97554.87;;;11.38;68.97
69127;BME280;56688;50.234;19.292;2023-04-25T06:50:34;97556.79;;;11.40;68.93
69127;BME280;56688;50.234;19.292;2023-04-25T06:53:01;97558.27;;;11.43;68.86
69127;BME280;56688;50.234;19.292;2023-04-25T06:55:28;97557.25;;;11.39;68.49
69127;BME280;56688;50.234;19.292;2023-04-25T06:58:06;97559.77;;;11.42;68.53
69127;BME280;56688;50.234;19.292;2023-04-25T07:00:50;97557.25;;;11.39;68.94
69127;BME280;56688;50.234;19.292;2023-04-25T07:03:19;97554.35;;;11.41;68.84
69127;BME280;56688;50.234;19.292;2023-04-25T07:05:47;97551.96;;;11.48;68.48
69127;BME280;56688;50.234;19.292;2023-04-25T07:08:14;97548.70;;;11.55;68.24
69127;BME280;56688;50.234;19.292;2023-04-25T07:10:41;97548.50;;;11.60;67.74
69127;BME280;56688;50.234;19.292;2023-04-25T07:13:08;97554.77;;;11.63;67.47
69127;BME280;56688;50.234;19.292;2023-04-25T07:15:35;97556.00;;;11.66;67.22
69127;BME280;56688;50.234;19.292;2023-04-25T07:18:02;97556.66;;;11.66;67.08
69127;BME280;56688;50.234;19.292;2023-04-25T07:20:29;97554.59;;;11.64;66.58
69127;BME280;56688;50.234;19.292;2023-04-25T07:22:57;97552.70;;;11.60;66.20
69127;BME280;56688;50.234;19.292;2023-04-25T07:25:24;97553.09;;;11.56;66.37
69127;BME280;56688;50.234;19.292;2023-04-25T07:27:52;97550.15;;;11.59;66.52
69127;BME280;56688;50.234;19.292;2023-04-25T07:30:20;97552.02;;;11.67;66.07
69127;BME280;56688;50.234;19.292;2023-04-25T07:32:47;97551.11;;;11.67;64.31
69127;BME280;56688;50.234;19.292;2023-04-25T07:35:14;97553.52;;;11.66;64.79
69127;BME280;56688;50.234;19.292;2023-04-25T07:37:41;97553.29;;;11.68;64.59
69127;BME280;56688;50.234;19.292;2023-04-25T07:40:12;97555.82;;;11.76;65.20
69127;BME280;56688;50.234;19.292;2023-04-25T07:42:43;97557.68;;;11.84;65.42
69127;BME280;56688;50.234;19.292;2023-04-25T07:45:12;97557.34;;;11.90;65.77
69127;BME280;56688;50.234;19.292;2023-04-25T07:47:39;97555.00;;;11.93;64.13
69127;BME280;56688;50.234;19.292;2023-04-25T07:50:07;97550.17;;;11.85;63.84
69127;BME280;56688;50.234;19.292;2023-04-25T07:52:35;97556.22;;;11.94;65.04
69127;BME280;56688;50.234;19.292;2023-04-25T07:55:11;97558.13;;;11.99;65.45
69127;BME280;56688;50.234;19.292;2023-04-25T07:57:51;97557.15;;;12.00;64.03
69127;BME280;56688;50.234;19.292;2023-04-25T08:00:19;97555.52;;;12.03;62.88
69127;BME280;56688;50.234;19.292;2023-04-25T08:02:47;97554.60;;;12.01;62.38
69127;BME280;56688;50.234;19.292;2023-04-25T08:05:15;97556.83;;;12.00;62.72
69127;BME280;56688;50.234;19.292;2023-04-25T08:07:50;97558.38;;;12.02;62.81
69127;BME280;56688;50.234;19.292;2023-04-25T08:10:17;97561.08;;;12.03;62.43
69127;BME280;56688;50.234;19.292;2023-04-25T08:12:46;97557.77;;;12.05;63.33
69127;BME280;56688;50.234;19.292;2023-04-25T08:15:13;97556.15;;;12.11;63.10
69127;BME280;56688;50.234;19.292;2023-04-25T08:17:41;97552.23;;;12.16;62.40
69127;BME280;56688;50.234;19.292;2023-04-25T08:20:09;97553.41;;;12.16;61.66
69127;BME280;56688;50.234;19.292;2023-04-25T08:22:37;97553.98;;;12.22;61.90
69127;BME280;56688;50.234;19.292;2023-04-25T08:25:24;97551.56;;;12.24;61.07
69127;BME280;56688;50.234;19.292;2023-04-25T08:27:51;97553.12;;;12.22;60.52
69127;BME280;56688;50.234;19.292;2023-04-25T08:30:19;97553.29;;;12.30;59.91
69127;BME280;56688;50.234;19.292;2023-04-25T08:32:47;97552.33;;;12.37;61.19
69127;BME280;56688;50.234;19.292;2023-04-25T08:35:23;97553.68;;;12.54;60.96
69127;BME280;56688;50.234;19.292;2023-04-25T08:37:50;97555.04;;;12.68;59.82
69127;BME280;56688;50.234;19.292;2023-04-25T08:40:19;97552.09;;;12.75;59.30
69127;BME280;56688;50.234;19.292;2023-04-25T08:42:57;97547.20;;;12.85;59.26
69127;BME280;56688;50.234;19.292;2023-04-25T08:45:27;97552.70;;;12.97;58.96
69127;BME280;56688;50.234;19.292;2023-04-25T08:47:55;97552.29;;;13.12;57.94
69127;BME280;56688;50.234;19.292;2023-04-25T08:50:24;97552.23;;;13.29;58.44
69127;BME280;56688;50.234;19.292;2023-04-25T08:52:54;97553.54;;;13.50;57.46
69127;BME280;56688;50.234;19.292;2023-04-25T08:55:22;97550.68;;;13.61;55.49
69127;BME280;56688;50.234;19.292;2023-04-25T08:57:54;97552.09;;;13.66;55.78
69127;BME280;56688;50.234;19.292;2023-04-25T09:00:21;97552.66;;;13.82;55.30
69127;BME280;56688;50.234;19.292;2023-04-25T09:02:49;97551.14;;;13.93;55.22
69127;BME280;56688;50.234;19.292;2023-04-25T09:05:18;97553.09;;;14.07;54.26
69127;BME280;56688;50.234;19.292;2023-04-25T09:07:50;97554.30;;;14.16;53.81
69127;BME280;56688;50.234;19.292;2023-04-25T09:10:17;97553.22;;;14.28;53.75
69127;BME280;56688;50.234;19.292;2023-04-25T09:12:44;97554.38;;;14.46;54.25
69127;BME280;56688;50.234;19.292;2023-04-25T09:15:13;97557.27;;;14.64;51.80
69127;BME280;56688;50.234;19.292;2023-04-25T09:18:02;97555.30;;;14.68;51.15
69127;BME280;56688;50.234;19.292;2023-04-25T09:20:41;97557.87;;;14.83;51.08
69127;BME280;56688;50.234;19.292;2023-04-25T09:23:26;97556.98;;;15.04;52.03
69127;BME280;56688;50.234;19.292;2023-04-25T09:25:53;97555.75;;;15.18;51.46
69127;BME280;56688;50.234;19.292;2023-04-25T09:28:25;97555.42;;;15.26;51.34
69127;BME280;56688;50.234;19.292;2023-04-25T09:30:57;97552.16;;;15.31;50.65
69127;BME280;56688;50.234;19.292;2023-04-25T09:33:36;97556.93;;;15.33;50.28
69127;BME280;56688;50.234;19.292;2023-04-25T09:36:08;97556.32;;;15.38;49.52
69127;BME280;56688;50.234;19.292;2023-04-25T09:38:44;97552.70;;;15.42;49.25
69127;BME280;56688;50.234;19.292;2023-04-25T09:41:27;97555.05;;;15.41;47.81
69127;BME280;56688;50.234;19.292;2023-04-25T09:43:58;97556.21;;;15.41;49.20
69127;BME280;56688;50.234;19.292;2023-04-25T09:46:34;97554.41;;;15.42;48.06
69127;BME280;56688;50.234;19.292;2023-04-25T09:49:07;97550.83;;;15.34;48.42
69127;BME280;56688;50.234;19.292;2023-04-25T09:51:54;97552.35;;;15.35;49.42
69127;BME280;56688;50.234;19.292;2023-04-25T09:54:24;97553.81;;;15.39;48.14
69127;BME280;56688;50.234;19.292;2023-04-25T09:57:10;97557.42;;;15.39;47.03
69127;BME280;56688;50.234;19.292;2023-04-25T09:59:42;97553.20;;;15.38;47.68
69127;BME280;56688;50.234;19.292;2023-04-25T10:02:10;97552.61;;;15.41;47.17
69127;BME280;56688;50.234;19.292;2023-04-25T10:04:40;97554.42;;;15.43;46.33
69127;BME280;56688;50.234;19.292;2023-04-25T10:07:16;97551.38;;;15.41;47.33
69127;BME280;56688;50.234;19.292;2023-04-25T10:09:47;97544.68;;;15.34;46.50
69127;BME280;56688;50.234;19.292;2023-04-25T10:12:16;97549.14;;;15.24;46.20
69127;BME280;56688;50.234;19.292;2023-04-25T10:14:44;97552.02;;;15.17;45.77
69127;BME280;56688;50.234;19.292;2023-04-25T10:17:12;97547.13;;;15.10;46.20
69127;BME280;56688;50.234;19.292;2023-04-25T10:19:39;97546.63;;;15.16;48.23
69127;BME280;56688;50.234;19.292;2023-04-25T10:22:08;97540.27;;;15.30;47.73
69127;BME280;56688;50.234;19.292;2023-04-25T10:24:38;97536.52;;;15.47;46.22
69127;BME280;56688;50.234;19.292;2023-04-25T10:27:06;97534.11;;;15.66;46.38
69127;BME280;56688;50.234;19.292;2023-04-25T10:29:35;97533.25;;;15.86;44.86
69127;BME280;56688;50.234;19.292;2023-04-25T10:32:02;97529.54;;;15.99;44.16
69127;BME280;56688;50.234;19.292;2023-04-25T10:34:44;97532.66;;;16.04;43.46
69127;BME280;56688;50.234;19.292;2023-04-25T10:37:15;97528.55;;;15.88;42.87
69127;BME280;56688;50.234;19.292;2023-04-25T10:39:42;97532.42;;;15.81;43.73
69127;BME280;56688;50.234;19.292;2023-04-25T10:42:09;97526.67;;;15.82;44.10
69127;BME280;56688;50.234;19.292;2023-04-25T10:44:37;97527.02;;;15.87;43.52
69127;BME280;56688;50.234;19.292;2023-04-25T10:47:07;97528.21;;;15.77;44.21
69127;BME280;56688;50.234;19.292;2023-04-25T10:49:38;97528.09;;;15.80;44.29
69127;BME280;56688;50.234;19.292;2023-04-25T10:52:18;97527.40;;;15.84;43.34
69127;BME280;56688;50.234;19.292;2023-04-25T10:54:52;97521.97;;;15.91;45.05
69127;BME280;56688;50.234;19.292;2023-04-25T10:57:42;97518.36;;;16.06;44.62
69127;BME280;56688;50.234;19.292;2023-04-25T11:00:13;97510.18;;;16.22;43.88
69127;BME280;56688;50.234;19.292;2023-04-25T11:02:43;97509.65;;;16.26;42.21
69127;BME280;56688;50.234;19.292;2023-04-25T11:07:51;97512.80;;;16.20;43.16
69127;BME280;56688;50.234;19.292;2023-04-25T11:10:31;97511.52;;;16.28;42.66
69127;BME280;56688;50.234;19.292;2023-04-25T11:12:58;97510.13;;;16.30;42.30
69127;BME280;56688;50.234;19.292;2023-04-25T11:15:26;97509.52;;;16.28;42.20
69127;BME280;56688;50.234;19.292;2023-04-25T11:17:54;97512.10;;;16.28;42.13
69127;BME280;56688;50.234;19.292;2023-04-25T11:20:24;97510.59;;;16.32;42.05
69127;BME280;56688;50.234;19.292;2023-04-25T11:22:52;97516.06;;;16.42;42.42
69127;BME280;56688;50.234;19.292;2023-04-25T11:25:19;97518.80;;;16.58;41.87
69127;BME280;56688;50.234;19.292;2023-04-25T11:27:51;97519.35;;;16.67;41.73
69127;BME280;56688;50.234;19.292;2023-04-25T11:30:19;97514.02;;;16.64;41.17
69127;BME280;56688;50.234;19.292;2023-04-25T11:32:47;97517.17;;;16.53;41.31
69127;BME280;56688;50.234;19.292;2023-04-25T11:35:14;97519.78;;;16.46;41.81
69127;BME280;56688;50.234;19.292;2023-04-25T11:37:43;97519.09;;;16.39;41.32
69127;BME280;56688;50.234;19.292;2023-04-25T11:40:11;97519.15;;;16.34;42.08
69127;BME280;56688;50.234;19.292;2023-04-25T11:42:44;97528.61;;;16.25;41.09
69127;BME280;56688;50.234;19.292;2023-04-25T11:45:11;97524.38;;;16.19;40.96
69127;BME280;56688;50.234;19.292;2023-04-25T11:47:39;97521.06;;;16.10;41.77
69127;BME280;56688;50.234;19.292;2023-04-25T11:50:07;97520.16;;;16.03;41.27
69127;BME280;56688;50.234;19.292;2023-04-25T11:52:45;97521.73;;;15.94;41.99
69127;BME280;56688;50.234;19.292;2023-04-25T11:57:42;97528.17;;;15.53;40.31
69127;BME280;56688;50.234;19.292;2023-04-25T12:00:12;97527.61;;;15.27;41.39
69127;BME280;56688;50.234;19.292;2023-04-25T12:02:45;97527.70;;;15.20;44.09
69127;BME280;56688;50.234;19.292;2023-04-25T12:05:14;97528.27;;;15.19;43.21
69127;BME280;56688;50.234;19.292;2023-04-25T12:07:57;97527.06;;;15.15;43.99
69127;BME280;56688;50.234;19.292;2023-04-25T12:10:24;97524.93;;;15.13;43.37
69127;BME280;56688;50.234;19.292;2023-04-25T12:12:52;97524.77;;;15.04;42.39
69127;BME280;56688;50.234;19.292;2023-04-25T12:15:26;97521.82;;;14.85;42.58
69127;BME280;56688;50.234;19.292;2023-04-25T12:17:54;97519.73;;;14.67;43.45
69127;BME280;56688;50.234;19.292;2023-04-25T12:20:25;97521.67;;;14.53;43.80
69127;BME280;56688;50.234;19.292;2023-04-25T12:22:52;97524.02;;;14.33;44.03
69127;BME280;56688;50.234;19.292;2023-04-25T12:28:19;97529.02;;;14.11;45.32
69127;BME280;56688;50.234;19.292;2023-04-25T12:31:04;97530.58;;;14.05;44.85
69127;BME280;56688;50.234;19.292;2023-04-25T12:33:34;97530.51;;;13.95;45.32
69127;BME280;56688;50.234;19.292;2023-04-25T12:36:03;97528.04;;;13.87;44.91
69127;BME280;56688;50.234;19.292;2023-04-25T12:38:37;97534.92;;;13.79;45.66
69127;BME280;56688;50.234;19.292;2023-04-25T12:41:05;97530.39;;;13.70;45.19
69127;BME280;56688;50.234;19.292;2023-04-25T12:43:32;97529.48;;;13.67;45.99
69127;BME280;56688;50.234;19.292;2023-04-25T12:45:59;97532.08;;;13.66;46.06
69127;BME280;56688;50.234;19.292;2023-04-25T12:48:26;97534.52;;;13.65;45.62
69127;BME280;56688;50.234;19.292;2023-04-25T12:50:53;97536.80;;;13.64;46.34
69127;BME280;56688;50.234;19.292;2023-04-25T12:53:22;97535.88;;;13.65;45.38
69127;BME280;56688;50.234;19.292;2023-04-25T12:55:51;97533.03;;;13.65;45.24
69127;BME280;56688;50.234;19.292;2023-04-25T12:58:19;97530.48;;;13.62;45.58
69127;BME280;56688;50.234;19.292;2023-04-25T13:00:46;97531.60;;;13.61;45.59
69127;BME280;56688;50.234;19.292;2023-04-25T13:03:14;97531.69;;;13.59;45.25
69127;BME280;56688;50.234;19.292;2023-04-25T13:05:41;97526.94;;;13.56;44.81
69127;BME280;56688;50.234;19.292;2023-04-25T13:08:08;97531.98;;;13.53;45.84
69127;BME280;56688;50.234;19.292;2023-04-25T13:10:35;97530.63;;;13.50;46.08
69127;BME280;56688;50.234;19.292;2023-04-25T13:13:04;97533.41;;;13.46;45.61
69127;BME280;56688;50.234;19.292;2023-04-25T13:15:31;97530.66;;;13.45;46.49
69127;BME280;56688;50.234;19.292;2023-04-25T13:17:58;97532.04;;;13.49;46.75